createdAt,value
2018-11-07T00:01:07.845Z,15.30
2018-11-07T00:03:37.681Z,14.73
2018-11-07T00:06:07.484Z,15.97
2018-11-07T00:08:37.801Z,14.10
2018-11-07T00:11:07.709Z,15.70
2018-11-07T00:13:37.430Z,15.50
2018-11-07T00:16:07.329Z,15.47
2018-11-07T00:18:36.845Z,15.27
2018-11-07T00:21:06.551Z,15.07
2018-11-07T00:23:36.768Z,15.23
2018-11-07T00:26:06.487Z,14.27
2018-11-07T00:28:36.390Z,15.20
2018-11-07T00:31:06.103Z,15.43
2018-11-07T00:33:35.910Z,15.77
2018-11-07T00:36:06.239Z,14.47
2018-11-07T00:38:37.900Z,13.67
2018-11-07T00:41:07.805Z,14.50
2018-11-07T00:43:37.820Z,15.37
2018-11-07T00:46:07.849Z,14.87
2018-11-07T00:48:37.850Z,14.57
2018-11-07T00:51:07.679Z,14.47
2018-11-07T00:53:37.680Z,14.93
2018-11-07T00:56:07.809Z,15.97
2018-11-07T00:58:37.822Z,14.53
2018-11-07T01:01:07.840Z,12.87
2018-11-07T01:03:37.750Z,14.67
2018-11-07T01:06:07.870Z,14.17
2018-11-07T01:08:38.190Z,14.47
2018-11-07T01:11:08.823Z,13.80
2018-11-07T01:13:38.836Z,14.17
2018-11-07T01:16:08.649Z,14.70
2018-11-07T01:18:38.778Z,15.40
2018-11-07T01:21:08.690Z,15.20
2018-11-07T01:23:39.110Z,14.67
2018-11-07T01:26:09.330Z,14.33
2018-11-07T01:28:39.250Z,13.67
2018-11-07T01:31:09.566Z,14.13
2018-11-07T01:33:39.390Z,13.60
2018-11-07T01:36:09.400Z,12.83
2018-11-07T01:38:39.099Z,12.40
2018-11-07T01:41:08.728Z,13.53
2018-11-07T01:43:38.422Z,13.67
2018-11-07T01:46:08.538Z,13.03
2018-11-07T01:48:38.249Z,14.17
2018-11-07T01:51:08.375Z,12.47
2018-11-07T01:53:38.080Z,14.13
2018-11-07T01:56:08.096Z,13.23
2018-11-07T01:58:37.804Z,13.67
2018-11-07T02:01:08.233Z,12.70
2018-11-07T02:03:38.144Z,13.33
2018-11-07T02:06:08.269Z,13.13
2018-11-07T02:08:38.790Z,11.57
2018-11-07T02:11:08.808Z,13.93
2018-11-07T02:13:38.729Z,13.53
2018-11-07T02:16:08.541Z,13.50
2018-11-07T02:18:38.759Z,12.73
2018-11-07T02:21:09.500Z,12.80
2018-11-07T02:23:39.915Z,13.17
2018-11-07T02:26:10.043Z,13.10
2018-11-07T02:28:40.050Z,14.30
2018-11-07T02:31:09.870Z,13.30
2018-11-07T02:33:39.470Z,12.30
2018-11-07T02:36:09.898Z,13.87
2018-11-07T02:38:39.708Z,11.97
2018-11-07T02:41:09.838Z,13.17
2018-11-07T02:43:39.840Z,12.47
2018-11-07T02:46:09.958Z,14.27
2018-11-07T02:48:39.469Z,13.20
2018-11-07T02:51:09.290Z,12.70
2018-11-07T02:53:39.495Z,11.87
2018-11-07T02:56:09.413Z,13.30
2018-11-07T02:58:39.131Z,13.40
2018-11-07T03:01:09.519Z,12.90
2018-11-07T03:03:39.256Z,12.30
2018-11-07T03:06:09.387Z,14.07
2018-11-07T03:08:39.087Z,13.10
2018-11-07T03:11:08.911Z,13.13
2018-11-07T03:13:38.502Z,13.50
2018-11-07T03:16:08.109Z,12.93
2018-11-07T03:18:37.815Z,13.63
2018-11-07T03:21:07.739Z,13.47
2018-11-07T03:23:37.438Z,12.90
2018-11-07T03:26:07.153Z,12.73
2018-11-07T03:28:36.856Z,15.20
2018-11-07T03:31:06.676Z,13.23
2018-11-07T03:33:36.917Z,14.50
2018-11-07T03:36:06.495Z,13.80
2018-11-07T03:38:36.514Z,15.47
2018-11-07T03:41:06.839Z,14.73
2018-11-07T03:43:36.448Z,14.73
2018-11-07T03:46:06.783Z,14.87
2018-11-07T03:48:36.792Z,14.60
2018-11-07T03:51:06.926Z,14.80
2018-11-07T03:53:36.715Z,15.77
2018-11-07T03:56:06.835Z,15.50
2018-11-07T03:58:37.263Z,15.97
2018-11-07T04:01:07.065Z,16.57
2018-11-07T04:03:36.475Z,15.57
2018-11-07T04:06:06.798Z,16.47
2018-11-07T04:08:37.124Z,15.57
2018-11-07T04:11:07.452Z,16.57
2018-11-07T04:13:37.382Z,15.83
2018-11-07T04:16:07.373Z,16.03
2018-11-07T04:18:37.805Z,16.73
2018-11-07T04:21:07.820Z,15.70
2018-11-07T04:23:37.631Z,17.00
2018-11-07T04:26:07.450Z,15.97
2018-11-07T04:28:37.259Z,16.70
2018-11-07T04:31:07.055Z,16.17
2018-11-07T04:33:37.390Z,16.53
2018-11-07T04:36:07.090Z,17.53
2018-11-07T04:38:36.811Z,16.67
2018-11-07T04:41:06.926Z,16.83
2018-11-07T04:43:36.637Z,17.07
2018-11-07T04:46:06.344Z,17.67
2018-11-07T04:48:36.463Z,17.53
2018-11-07T04:51:06.912Z,18.50
2018-11-07T04:53:37.028Z,19.93
2018-11-07T04:56:07.969Z,19.90
2018-11-07T04:58:37.979Z,19.33
2018-11-07T05:01:08.069Z,17.57
2018-11-07T05:03:38.096Z,18.27
2018-11-07T05:06:07.810Z,18.00
2018-11-07T05:08:37.695Z,17.60
2018-11-07T05:11:07.945Z,18.43
2018-11-07T05:13:37.992Z,16.23
2018-11-07T05:16:08.385Z,16.70
2018-11-07T05:18:37.890Z,17.07
2018-11-07T05:21:08.033Z,16.77
2018-11-07T05:23:38.375Z,16.90
2018-11-07T05:26:09.064Z,17.60
2018-11-07T05:28:38.779Z,15.77
2018-11-07T05:31:08.585Z,15.30
2018-11-07T05:33:38.812Z,16.53
2018-11-07T05:36:08.831Z,15.00
2018-11-07T05:38:38.944Z,15.33
2018-11-07T05:41:08.818Z,15.87
2018-11-07T05:43:39.085Z,15.70
2018-11-07T05:46:09.099Z,15.73
2018-11-07T05:48:39.016Z,15.10
2018-11-07T05:51:08.927Z,16.37
2018-11-07T05:53:38.839Z,16.77
2018-11-07T05:56:08.752Z,15.37
2018-11-07T05:58:39.304Z,15.70
2018-11-07T06:01:09.335Z,15.83
2018-11-07T06:03:39.343Z,15.67
2018-11-07T06:06:09.330Z,15.47
2018-11-07T06:08:39.912Z,15.93
2018-11-07T06:11:09.996Z,16.70
2018-11-07T06:13:39.915Z,16.57
2018-11-07T06:16:09.873Z,18.93
2018-11-07T06:18:39.717Z,23.43
2018-11-07T06:21:09.856Z,19.57
2018-11-07T06:23:39.983Z,16.67
2018-11-07T06:26:09.885Z,17.27
2018-11-07T06:28:39.904Z,15.17
2018-11-07T06:31:09.918Z,14.03
2018-11-07T06:33:40.330Z,15.20
2018-11-07T06:36:10.355Z,14.40
2018-11-07T06:38:40.796Z,15.80
2018-11-07T06:41:10.807Z,13.83
2018-11-07T06:43:40.934Z,15.87
2018-11-07T06:46:10.845Z,15.83
2018-11-07T06:48:41.015Z,28.53
2018-11-07T06:51:10.963Z,50.80
2018-11-07T06:53:40.796Z,41.33
2018-11-07T06:56:10.596Z,28.40
2018-11-07T06:58:40.626Z,22.40
2018-11-07T07:01:10.904Z,19.57
2018-11-07T07:03:40.939Z,15.93
2018-11-07T07:06:10.651Z,15.23
2018-11-07T07:08:40.663Z,18.30
2018-11-07T07:11:10.492Z,17.70
2018-11-07T07:13:40.078Z,17.67
2018-11-07T07:16:09.895Z,15.60
2018-11-07T07:18:39.813Z,14.00
2018-11-07T07:21:09.545Z,15.40
2018-11-07T07:23:39.567Z,14.17
2018-11-07T07:26:09.458Z,14.57
2018-11-07T07:28:39.276Z,13.97
2018-11-07T07:31:09.016Z,13.53
2018-11-07T07:33:38.633Z,13.27
2018-11-07T07:36:08.693Z,14.73
2018-11-07T07:38:38.933Z,13.80
2018-11-07T07:41:08.626Z,13.87
2018-11-07T07:43:38.764Z,13.37
2018-11-07T07:46:08.866Z,13.97
2018-11-07T07:48:38.376Z,12.47
2018-11-07T07:51:08.009Z,13.17
2018-11-07T07:53:37.681Z,14.43
2018-11-07T07:56:07.395Z,13.53
2018-11-07T07:58:37.416Z,12.53
2018-11-07T08:01:07.628Z,13.70
2018-11-07T08:03:37.242Z,12.83
2018-11-07T08:06:07.357Z,13.07
2018-11-07T08:08:37.176Z,13.67
2018-11-07T08:11:07.412Z,14.23
2018-11-07T08:13:37.494Z,13.37
2018-11-07T08:16:07.730Z,13.33
2018-11-07T08:18:37.749Z,12.67
2018-11-07T08:21:07.507Z,13.40
2018-11-07T08:23:37.778Z,12.53
2018-11-07T08:26:08.009Z,13.30
2018-11-07T08:28:37.709Z,13.20
2018-11-07T08:31:07.419Z,12.73
2018-11-07T08:33:37.241Z,13.83
2018-11-07T08:36:07.149Z,12.97
2018-11-07T08:38:37.165Z,12.93
2018-11-07T08:41:07.195Z,11.90
2018-11-07T08:43:37.820Z,13.07
2018-11-07T08:46:07.736Z,12.67
2018-11-07T08:48:37.336Z,12.40
2018-11-07T08:51:07.140Z,12.83
2018-11-07T08:53:37.274Z,11.83
2018-11-07T08:56:07.481Z,12.13
2018-11-07T08:58:36.887Z,12.00
2018-11-07T09:01:06.967Z,12.70
2018-11-07T09:03:36.917Z,13.80
2018-11-07T09:06:06.863Z,12.03
2018-11-07T09:08:36.852Z,12.83
2018-11-07T09:11:06.463Z,12.63
2018-11-07T09:13:36.503Z,13.13
2018-11-07T09:16:06.803Z,11.87
2018-11-07T09:18:36.810Z,12.90
2018-11-07T09:21:06.829Z,12.50
2018-11-07T09:23:36.433Z,12.80
2018-11-07T09:26:06.761Z,13.23
2018-11-07T09:28:36.366Z,13.67
2018-11-07T09:31:06.178Z,13.43
2018-11-07T09:33:36.303Z,12.70
2018-11-07T09:36:06.238Z,11.87
2018-11-07T09:38:36.017Z,12.50
2018-11-07T09:41:06.032Z,12.73
2018-11-07T09:43:35.985Z,11.90
2018-11-07T09:46:05.776Z,12.33
2018-11-07T09:48:35.787Z,11.97
2018-11-07T09:51:05.815Z,11.77
2018-11-07T09:53:35.948Z,11.67
2018-11-07T09:56:05.933Z,11.97
2018-11-07T09:58:36.378Z,12.20
2018-11-07T10:01:06.385Z,11.53
2018-11-07T10:03:36.395Z,11.93
2018-11-07T10:06:06.205Z,11.40
2018-11-07T10:08:35.912Z,12.67
2018-11-07T10:11:05.727Z,12.23
2018-11-07T10:13:35.331Z,11.37
2018-11-07T10:16:05.244Z,11.53
2018-11-07T10:18:35.263Z,11.70
2018-11-07T10:21:05.078Z,11.93
2018-11-07T10:23:35.216Z,11.60
2018-11-07T10:26:05.420Z,12.50
2018-11-07T10:28:37.388Z,12.17
2018-11-07T10:31:07.202Z,12.63
2018-11-07T10:33:37.017Z,11.43
2018-11-07T10:36:06.912Z,10.83
2018-11-07T10:38:37.384Z,11.83
2018-11-07T10:41:07.054Z,12.50
2018-11-07T10:43:37.284Z,13.20
2018-11-07T10:46:07.915Z,13.60
2018-11-07T10:48:38.128Z,14.60
2018-11-07T10:51:07.837Z,12.50
2018-11-07T10:53:37.757Z,15.13
2018-11-07T10:56:07.454Z,13.33
2018-11-07T10:58:37.166Z,12.70
2018-11-07T11:01:11.285Z,13.03
2018-11-07T11:03:41.099Z,13.10
2018-11-07T11:06:11.106Z,12.57
2018-11-07T11:08:40.822Z,12.37
2018-11-07T11:11:10.749Z,12.50
2018-11-07T11:13:41.466Z,12.33
2018-11-07T11:16:11.795Z,13.60
2018-11-07T11:18:41.807Z,12.40
2018-11-07T11:21:11.735Z,13.37
2018-11-07T11:23:41.737Z,12.67
2018-11-07T11:26:11.446Z,15.53
2018-11-07T11:28:41.256Z,14.13
2018-11-07T11:31:10.876Z,11.63
2018-11-07T11:33:40.686Z,12.07
2018-11-07T11:36:10.389Z,12.37
2018-11-07T11:38:40.196Z,12.37
2018-11-07T11:41:26.716Z,12.27
2018-11-07T11:43:56.437Z,11.67
2018-11-07T11:46:26.855Z,12.17
2018-11-07T11:48:56.944Z,12.50
2018-11-07T11:51:26.605Z,12.73
2018-11-07T11:53:56.379Z,12.00
2018-11-07T11:56:26.394Z,12.63
2018-11-07T11:59:00.949Z,13.37
2018-11-07T12:01:30.828Z,11.23
2018-11-07T12:04:00.955Z,12.97
2018-11-07T12:06:31.089Z,13.27
2018-11-07T12:09:01.471Z,14.17
2018-11-07T12:11:31.721Z,15.43
2018-11-07T12:14:01.827Z,14.03
2018-11-07T12:16:32.048Z,13.03
2018-11-07T12:19:02.496Z,13.60
2018-11-07T12:21:32.399Z,12.70
2018-11-07T12:24:03.016Z,12.77
2018-11-07T12:26:32.944Z,13.00
2018-11-07T12:29:02.855Z,13.40
2018-11-07T12:31:33.067Z,12.40
2018-11-07T12:34:03.190Z,12.57
2018-11-07T12:36:34.965Z,12.87
2018-11-07T12:39:05.277Z,13.80
2018-11-07T12:41:35.203Z,13.07
2018-11-07T12:44:05.317Z,12.07
2018-11-07T12:46:35.115Z,12.73
2018-11-07T12:49:05.263Z,14.83
2018-11-07T12:51:34.945Z,13.47
2018-11-07T12:54:04.784Z,13.10
2018-11-07T12:56:34.667Z,13.47
2018-11-07T12:59:04.488Z,13.20
2018-11-07T13:01:34.293Z,12.47
2018-11-07T13:04:04.426Z,12.70
2018-11-07T13:06:34.527Z,13.23
2018-11-07T13:09:05.166Z,154.33
2018-11-07T13:11:35.466Z,79.17
2018-11-07T13:14:06.016Z,73.40
2018-11-07T13:16:36.378Z,33.83
2018-11-07T13:19:06.767Z,25.13
2018-11-07T13:21:36.886Z,29.27
2018-11-07T13:24:06.897Z,22.30
2018-11-07T13:26:36.936Z,13.63
2018-11-07T13:29:06.536Z,20.00
2018-11-07T13:31:36.857Z,21.10
2018-11-07T13:34:07.527Z,14.97
2018-11-07T13:36:37.841Z,16.83
2018-11-07T13:39:10.226Z,44.80
2018-11-07T13:41:41.836Z,22.97
2018-11-07T13:44:12.357Z,22.63
2018-11-07T13:46:43.707Z,27.27
2018-11-07T13:49:13.738Z,46.47
2018-11-07T13:51:43.956Z,17.40
2018-11-07T13:54:13.446Z,35.73
2018-11-07T13:56:44.383Z,17.37
2018-11-07T13:59:14.477Z,18.87
2018-11-07T14:01:44.111Z,17.63
2018-11-07T14:04:14.959Z,17.97
2018-11-07T14:06:50.185Z,17.13
2018-11-07T14:09:20.086Z,19.27
2018-11-07T14:11:49.807Z,21.70
2018-11-07T14:14:19.835Z,21.10
2018-11-07T14:16:49.847Z,18.97
2018-11-07T14:19:19.553Z,24.40
2018-11-07T14:21:49.776Z,29.60
2018-11-07T14:24:20.197Z,19.47
2018-11-07T14:26:51.856Z,17.20
2018-11-07T14:29:23.215Z,14.87
2018-11-07T14:31:53.528Z,14.17
2018-11-07T14:34:30.004Z,13.93
2018-11-07T14:37:00.155Z,16.40
2018-11-07T14:39:30.027Z,15.70
2018-11-07T14:42:00.244Z,16.63
2018-11-07T14:44:30.697Z,14.53
2018-11-07T14:47:00.395Z,16.73
2018-11-07T14:49:30.705Z,16.10
2018-11-07T14:52:00.836Z,16.47
2018-11-07T14:54:31.372Z,14.83
2018-11-07T14:57:02.019Z,14.60
2018-11-07T14:59:32.947Z,13.90
2018-11-07T15:02:02.747Z,13.37
2018-11-07T15:04:33.052Z,15.13
2018-11-07T15:07:03.084Z,13.83
2018-11-07T15:09:33.505Z,13.77
2018-11-07T15:12:05.005Z,13.97
2018-11-07T15:14:35.953Z,13.20
2018-11-07T15:17:06.680Z,14.03
2018-11-07T15:19:38.158Z,13.17
2018-11-07T15:22:08.623Z,14.17
2018-11-07T15:24:39.871Z,13.00
2018-11-07T15:27:10.588Z,15.07
2018-11-07T15:29:41.003Z,15.13
2018-11-07T15:32:10.923Z,15.90
2018-11-07T15:34:40.965Z,14.70
2018-11-07T15:37:10.749Z,16.30
2018-11-07T15:39:40.459Z,16.00
2018-11-07T15:42:10.372Z,15.03
2018-11-07T15:44:40.793Z,15.50
2018-11-07T15:47:10.930Z,15.50
2018-11-07T15:49:45.009Z,16.27
2018-11-07T15:52:15.257Z,16.53
2018-11-07T15:54:45.178Z,16.80
2018-11-07T15:57:15.198Z,15.57
2018-11-07T15:59:45.334Z,17.10
2018-11-07T16:02:15.126Z,16.40
2018-11-07T16:04:45.131Z,18.37
2018-11-07T16:07:15.585Z,16.93
2018-11-07T16:09:45.585Z,17.87
2018-11-07T16:12:15.786Z,20.07
2018-11-07T16:14:45.817Z,17.87
2018-11-07T16:17:16.011Z,18.97
2018-11-07T16:19:46.155Z,21.10
2018-11-07T16:22:16.168Z,17.13
2018-11-07T16:24:46.395Z,18.03
2018-11-07T16:27:15.896Z,17.30
2018-11-07T16:29:48.884Z,18.03
2018-11-07T16:32:18.800Z,17.40
2018-11-07T16:34:48.817Z,17.60
2018-11-07T16:37:18.828Z,16.23
2018-11-07T16:39:48.959Z,16.60
2018-11-07T16:42:18.978Z,17.27
2018-11-07T16:44:48.987Z,16.43
2018-11-07T16:47:19.101Z,16.13
2018-11-07T16:49:49.838Z,16.07
2018-11-07T16:52:20.489Z,18.50
2018-11-07T16:54:50.178Z,19.37
2018-11-07T16:57:20.399Z,19.03
2018-11-07T16:59:50.608Z,20.27
2018-11-07T17:02:20.538Z,23.07
2018-11-07T17:04:50.267Z,72.67
2018-11-07T17:07:20.392Z,92.13
2018-11-07T17:09:50.598Z,57.70
2018-11-07T17:12:21.005Z,38.67
2018-11-07T17:14:50.918Z,27.00
2018-11-07T17:17:20.727Z,21.03
2018-11-07T17:19:50.643Z,20.90
2018-11-07T17:22:20.252Z,20.50
2018-11-07T17:24:50.047Z,21.33
2018-11-07T17:27:20.070Z,19.77
2018-11-07T17:29:50.090Z,19.93
2018-11-07T17:32:20.415Z,17.57
2018-11-07T17:34:51.017Z,18.30
2018-11-07T17:37:33.856Z,17.43
2018-11-07T17:40:04.001Z,16.67
2018-11-07T17:42:34.318Z,17.13
2018-11-07T17:45:04.937Z,17.50
2018-11-07T17:47:35.258Z,17.63
2018-11-07T17:50:06.011Z,17.13
2018-11-07T17:52:36.235Z,17.63
2018-11-07T17:55:06.636Z,16.93
2018-11-07T17:57:36.967Z,18.47
2018-11-07T18:00:07.497Z,19.23
2018-11-07T18:02:37.819Z,18.50
2018-11-07T18:05:08.136Z,18.00
2018-11-07T18:07:44.681Z,18.57
2018-11-07T18:10:16.780Z,18.73
2018-11-07T18:12:48.128Z,20.77
2018-11-07T18:34:04.137Z,20.57
2018-11-07T18:36:35.180Z,19.73
2018-11-07T18:39:07.336Z,18.87
2018-11-07T18:41:40.959Z,21.13
2018-11-07T18:44:14.294Z,18.33
2018-11-07T18:46:47.749Z,18.83
2018-11-07T18:49:20.611Z,20.97
2018-11-07T18:51:51.255Z,19.37
2018-11-07T18:54:21.877Z,20.07
2018-11-07T18:56:53.038Z,21.93
2018-11-07T18:59:27.747Z,20.70
2018-11-07T19:01:57.973Z,23.77
2018-11-07T19:04:28.697Z,25.30
2018-11-07T19:06:59.636Z,25.27
2018-11-07T19:09:29.773Z,22.40
2018-11-07T19:12:00.394Z,22.77
2018-11-07T19:14:31.536Z,22.33
2018-11-07T19:17:01.341Z,24.30
2018-11-07T19:19:33.827Z,23.80
2018-11-07T19:22:08.349Z,22.73
2018-11-07T19:24:40.515Z,22.47
2018-11-07T19:27:10.770Z,21.53
2018-11-07T19:29:42.071Z,21.37
2018-11-07T19:32:12.807Z,21.30
2018-11-07T19:34:43.957Z,20.93
2018-11-07T19:37:15.618Z,18.53
2018-11-07T19:39:53.003Z,19.57
2018-11-07T19:42:23.729Z,19.70
2018-11-07T19:44:53.845Z,18.10
2018-11-07T19:47:27.855Z,19.13
2018-11-07T19:49:58.202Z,17.90
2018-11-07T19:52:28.301Z,19.27
2018-11-07T19:54:58.475Z,19.53
2018-11-07T19:57:28.540Z,21.13
2018-11-07T19:59:58.245Z,21.53
2018-11-07T20:02:31.651Z,22.73
2018-11-07T20:05:01.462Z,23.70
2018-11-07T20:07:32.290Z,24.30
2018-11-07T20:10:03.142Z,22.07
2018-11-07T20:12:34.997Z,20.93
2018-11-07T20:15:10.009Z,21.63
2018-11-07T20:17:40.242Z,19.40
2018-11-07T20:20:13.329Z,21.50
2018-11-07T20:22:43.432Z,22.37
2018-11-07T20:25:15.127Z,22.43
2018-11-07T20:27:48.291Z,25.87
2018-11-07T20:30:21.878Z,24.73
2018-11-07T20:32:53.143Z,26.17
2018-11-07T20:35:24.410Z,25.80
2018-11-07T20:37:54.503Z,23.03
2018-11-07T20:40:25.141Z,32.10
2018-11-07T20:42:59.451Z,30.17
2018-11-07T20:45:30.395Z,24.50
2018-11-07T20:48:01.004Z,22.90
2018-11-07T20:50:36.052Z,24.70
2018-11-07T20:53:06.895Z,24.13
2018-11-07T20:55:36.806Z,21.70
2018-11-07T20:58:07.229Z,20.07
2018-11-07T21:00:37.357Z,22.43
2018-11-07T21:03:07.383Z,21.47
2018-11-07T21:05:38.616Z,21.77
2018-11-07T21:08:08.834Z,20.10
2018-11-07T21:10:39.365Z,20.33
2018-11-07T21:13:09.495Z,19.67
2018-11-07T21:15:39.907Z,21.27
2018-11-07T21:18:10.975Z,22.07
2018-11-07T21:20:41.058Z,22.00
2018-11-07T21:23:11.186Z,19.93
2018-11-07T21:25:41.203Z,20.73
2018-11-07T21:28:11.420Z,21.33
2018-11-07T21:30:41.850Z,19.97
2018-11-07T21:33:12.477Z,22.00
2018-11-07T21:35:42.500Z,20.50
2018-11-07T21:38:23.573Z,21.37
2018-11-07T21:40:53.700Z,21.10
2018-11-07T21:43:25.382Z,22.07
2018-11-07T21:45:57.417Z,23.73
2018-11-07T21:48:28.967Z,21.50
2018-11-07T21:50:58.876Z,22.50
2018-11-07T21:53:28.790Z,22.20
2018-11-07T21:55:58.817Z,20.13
2018-11-07T21:58:28.934Z,23.30
2018-11-07T22:01:00.479Z,20.97
2018-11-07T22:03:30.495Z,22.37
2018-11-07T22:06:00.714Z,22.20
2018-11-07T22:08:30.527Z,20.83
2018-11-07T22:11:00.448Z,20.33
2018-11-07T22:13:30.778Z,24.43
2018-11-07T22:16:06.011Z,24.80
2018-11-07T22:18:36.337Z,24.53
2018-11-07T22:21:06.256Z,22.43
2018-11-07T22:23:35.851Z,21.87
2018-11-07T22:26:05.763Z,20.13
2018-11-07T22:28:35.473Z,19.93
2018-11-07T22:31:05.395Z,20.80
2018-11-07T22:33:35.403Z,19.90
2018-11-07T22:36:05.527Z,19.73
2018-11-07T22:38:36.257Z,19.10
2018-11-07T22:41:06.889Z,20.53
2018-11-07T22:43:36.496Z,18.90
2018-11-07T22:46:06.408Z,17.87
2018-11-07T22:48:35.913Z,18.90
2018-11-07T22:51:06.131Z,18.50
2018-11-07T22:53:36.254Z,19.33
2018-11-07T22:56:06.059Z,19.07
2018-11-07T22:58:36.071Z,20.60
2018-11-07T23:01:10.082Z,20.47
2018-11-07T23:03:39.931Z,23.27
2018-11-07T23:06:09.817Z,21.13
2018-11-07T23:08:39.735Z,21.73
2018-11-07T23:11:09.439Z,20.53
2018-11-07T23:13:39.457Z,21.63
2018-11-07T23:16:09.783Z,19.83
2018-11-07T23:18:39.811Z,20.13
2018-11-07T23:21:09.717Z,19.70
2018-11-07T23:23:40.548Z,19.43
2018-11-07T23:26:10.983Z,18.57
2018-11-07T23:28:40.683Z,17.97
2018-11-07T23:31:10.698Z,18.83
2018-11-07T23:33:40.408Z,17.83
2018-11-07T23:36:10.638Z,17.83
2018-11-07T23:38:40.444Z,18.30
2018-11-07T23:41:11.483Z,16.83
2018-11-07T23:43:41.702Z,17.00
2018-11-07T23:46:11.419Z,18.13
2018-11-07T23:48:41.129Z,16.87
2018-11-07T23:51:11.139Z,17.37
2018-11-07T23:53:41.156Z,17.00
2018-11-07T23:56:11.172Z,17.40
2018-11-07T23:58:41.299Z,18.10
